createdAt,value
2023-01-30T00:00:56.918Z,31.48
2023-01-30T00:03:24.078Z,32.22
2023-01-30T00:05:50.908Z,35.17
2023-01-30T00:08:17.666Z,34.83
2023-01-30T00:10:44.259Z,32.97
2023-01-30T00:13:10.912Z,33.72
2023-01-30T00:15:37.272Z,32.08
2023-01-30T00:18:03.961Z,33.60
2023-01-30T00:20:30.490Z,32.63
2023-01-30T00:23:01.013Z,34.67
2023-01-30T00:25:27.877Z,31.25
2023-01-30T00:27:54.390Z,30.63
2023-01-30T00:30:20.897Z,35.63
2023-01-30T00:32:47.357Z,32.67
2023-01-30T00:35:13.969Z,30.00
2023-01-30T00:37:40.258Z,33.38
2023-01-30T00:40:06.722Z,29.42
2023-01-30T00:42:51.884Z,31.00
2023-01-30T00:45:36.993Z,32.15
2023-01-30T00:48:03.609Z,33.28
2023-01-30T00:50:42.473Z,29.77
2023-01-30T00:53:12.851Z,33.58
2023-01-30T00:55:39.647Z,29.63
2023-01-30T00:58:06.003Z,32.35
2023-01-30T01:00:33.136Z,31.27
2023-01-30T01:02:59.570Z,29.92
2023-01-30T01:05:26.449Z,26.00
2023-01-30T01:07:53.021Z,27.50
2023-01-30T01:10:19.364Z,29.13
2023-01-30T01:12:46.440Z,30.05
2023-01-30T01:15:13.368Z,30.70
2023-01-30T01:17:40.453Z,26.60
2023-01-30T01:20:07.112Z,34.72
2023-01-30T01:22:33.465Z,27.75
2023-01-30T01:24:59.831Z,29.60
2023-01-30T01:27:26.187Z,29.55
2023-01-30T01:29:52.604Z,26.35
2023-01-30T01:32:20.092Z,28.80
2023-01-30T01:34:46.482Z,30.20
2023-01-30T01:37:13.281Z,33.92
2023-01-30T01:39:58.124Z,37.20
2023-01-30T01:42:25.325Z,32.65
2023-01-30T01:45:13.730Z,29.58
2023-01-30T01:47:42.156Z,31.92
2023-01-30T01:50:14.632Z,27.88
2023-01-30T01:52:41.039Z,29.23
2023-01-30T01:55:07.657Z,27.05
2023-01-30T01:57:33.992Z,26.25
2023-01-30T02:00:06.492Z,30.10
2023-01-30T02:02:33.682Z,21.17
2023-01-30T02:05:03.270Z,24.95
2023-01-30T02:07:31.455Z,29.27
2023-01-30T02:09:57.965Z,24.08
2023-01-30T02:12:24.685Z,24.73
2023-01-30T02:14:51.219Z,23.55
2023-01-30T02:17:17.531Z,27.83
2023-01-30T02:19:54.898Z,25.00
2023-01-30T02:22:36.326Z,30.70
2023-01-30T02:25:14.113Z,23.63
2023-01-30T02:27:40.500Z,28.08
2023-01-30T02:30:06.818Z,25.58
2023-01-30T02:32:45.968Z,22.70
2023-01-30T02:35:12.316Z,25.98
2023-01-30T02:37:59.384Z,23.88
2023-01-30T02:40:34.821Z,21.38
2023-01-30T02:43:19.983Z,25.48
2023-01-30T02:45:58.321Z,27.05
2023-01-30T02:48:31.034Z,24.42
2023-01-30T02:50:59.717Z,25.65
2023-01-30T02:53:26.471Z,25.70
2023-01-30T02:55:52.800Z,23.80
2023-01-30T02:58:21.704Z,26.88
2023-01-30T03:01:11.358Z,27.25
2023-01-30T03:03:46.105Z,23.88
2023-01-30T03:06:12.396Z,21.77
2023-01-30T03:08:38.713Z,25.73
2023-01-30T03:11:06.672Z,27.65
2023-01-30T03:14:05.665Z,27.40
2023-01-30T03:16:35.245Z,26.08
2023-01-30T03:19:03.382Z,24.63
2023-01-30T03:21:29.909Z,25.80
2023-01-30T03:23:56.411Z,27.77
2023-01-30T03:26:24.830Z,24.15
2023-01-30T03:28:51.788Z,23.70
2023-01-30T03:31:18.263Z,27.73
2023-01-30T03:33:45.268Z,25.85
2023-01-30T03:36:11.995Z,24.45
2023-01-30T03:38:38.393Z,30.17
2023-01-30T03:41:05.300Z,26.15
2023-01-30T03:43:31.648Z,26.73
2023-01-30T03:45:58.035Z,28.30
2023-01-30T03:48:24.462Z,27.55
2023-01-30T03:50:50.831Z,29.08
2023-01-30T03:53:17.202Z,28.13
2023-01-30T03:55:46.318Z,25.80
2023-01-30T03:58:12.755Z,28.33
2023-01-30T04:00:39.041Z,30.60
2023-01-30T04:03:05.360Z,25.63
2023-01-30T04:05:31.731Z,28.58
2023-01-30T04:07:58.187Z,29.27
2023-01-30T04:10:25.038Z,23.60
2023-01-30T04:12:51.371Z,26.02
2023-01-30T04:15:17.964Z,27.42
2023-01-30T04:17:45.037Z,24.27
2023-01-30T04:20:11.451Z,27.05
2023-01-30T04:22:37.742Z,30.58
2023-01-30T04:25:04.234Z,31.67
2023-01-30T04:27:30.667Z,31.33
2023-01-30T04:29:57.035Z,27.10
2023-01-30T04:32:23.373Z,28.80
2023-01-30T04:34:49.653Z,29.27
2023-01-30T04:37:15.970Z,29.90
2023-01-30T04:39:42.317Z,33.47
2023-01-30T04:42:08.727Z,27.15
2023-01-30T04:44:35.036Z,28.02
2023-01-30T04:47:01.430Z,27.52
2023-01-30T04:49:27.824Z,29.63
2023-01-30T04:51:54.206Z,28.20
2023-01-30T04:54:20.572Z,31.35
2023-01-30T04:56:46.941Z,27.50
2023-01-30T04:59:13.386Z,30.02
2023-01-30T05:01:40.145Z,28.15
2023-01-30T05:04:06.799Z,29.98
2023-01-30T05:06:33.751Z,24.42
2023-01-30T05:09:00.100Z,28.40
2023-01-30T05:11:27.237Z,24.85
2023-01-30T05:13:53.980Z,26.60
2023-01-30T05:16:21.138Z,22.65
2023-01-30T05:18:47.496Z,25.85
2023-01-30T05:21:18.168Z,27.90
2023-01-30T05:23:44.876Z,27.83
2023-01-30T05:26:14.991Z,23.00
2023-01-30T05:28:41.916Z,24.80
2023-01-30T05:31:10.200Z,25.17
2023-01-30T05:33:37.126Z,27.90
2023-01-30T05:36:03.781Z,27.63
2023-01-30T05:38:30.122Z,27.10
2023-01-30T05:41:06.891Z,28.17
2023-01-30T05:43:34.313Z,23.17
2023-01-30T05:46:01.469Z,26.23
2023-01-30T05:48:28.791Z,27.00
2023-01-30T05:50:56.005Z,23.27
2023-01-30T05:53:23.186Z,23.45
2023-01-30T05:55:59.492Z,27.70
2023-01-30T05:58:25.975Z,24.27
2023-01-30T06:00:52.386Z,23.98
2023-01-30T06:03:18.765Z,24.48
2023-01-30T06:05:45.149Z,23.08
2023-01-30T06:08:11.737Z,25.67
2023-01-30T06:10:38.045Z,22.20
2023-01-30T06:13:04.495Z,18.63
2023-01-30T06:15:30.980Z,22.67
2023-01-30T06:17:57.273Z,23.02
2023-01-30T06:20:23.712Z,18.95
2023-01-30T06:22:50.058Z,19.05
2023-01-30T06:25:16.721Z,21.02
2023-01-30T06:27:43.483Z,21.48
2023-01-30T06:30:10.111Z,17.98
2023-01-30T06:32:36.934Z,18.13
2023-01-30T06:35:03.464Z,18.08
2023-01-30T06:37:29.769Z,16.65
2023-01-30T06:39:56.092Z,20.60
2023-01-30T06:42:22.422Z,15.98
2023-01-30T06:44:48.775Z,15.30
2023-01-30T06:47:15.134Z,15.10
2023-01-30T06:49:41.463Z,14.18
2023-01-30T06:52:07.918Z,13.77
2023-01-30T06:54:34.329Z,13.77
2023-01-30T06:57:01.077Z,14.70
2023-01-30T06:59:27.467Z,13.43
2023-01-30T07:01:53.909Z,10.85
2023-01-30T07:04:20.548Z,13.95
2023-01-30T07:06:46.974Z,10.85
2023-01-30T07:09:13.327Z,10.65
2023-01-30T07:11:39.650Z,11.50
2023-01-30T07:14:07.061Z,10.77
2023-01-30T07:16:33.670Z,8.55
2023-01-30T07:19:00.054Z,10.68
2023-01-30T07:21:27.743Z,9.65
2023-01-30T07:23:54.043Z,10.60
2023-01-30T07:26:20.403Z,7.85
2023-01-30T07:28:46.782Z,8.80
2023-01-30T07:31:13.144Z,8.68
2023-01-30T07:33:39.646Z,12.00
2023-01-30T07:36:06.149Z,8.43
2023-01-30T07:38:32.498Z,9.07
2023-01-30T07:40:59.063Z,10.57
2023-01-30T07:43:25.511Z,10.05
2023-01-30T07:45:51.903Z,9.25
2023-01-30T07:48:19.151Z,8.23
2023-01-30T07:50:46.107Z,8.27
2023-01-30T07:53:13.725Z,7.38
2023-01-30T07:55:40.386Z,9.70
2023-01-30T07:58:06.733Z,8.32
2023-01-30T08:00:33.231Z,9.45
2023-01-30T08:02:59.632Z,6.65
2023-01-30T08:05:26.443Z,5.53
2023-01-30T08:07:55.311Z,5.45
2023-01-30T08:10:21.817Z,6.65
2023-01-30T08:12:49.850Z,4.75
2023-01-30T08:15:16.218Z,5.45
2023-01-30T08:17:42.649Z,5.38
2023-01-30T08:20:09.464Z,5.95
2023-01-30T08:22:35.841Z,5.13
2023-01-30T08:25:02.124Z,4.15
2023-01-30T08:27:28.607Z,4.97
2023-01-30T08:29:54.954Z,5.70
2023-01-30T08:32:21.337Z,6.43
2023-01-30T08:34:47.702Z,3.95
2023-01-30T08:37:14.058Z,4.80
2023-01-30T08:39:40.404Z,5.18
2023-01-30T08:42:06.688Z,4.80
2023-01-30T08:44:33.093Z,4.22
2023-01-30T08:46:59.566Z,5.00
2023-01-30T08:49:25.856Z,4.03
2023-01-30T08:51:52.175Z,4.78
2023-01-30T08:54:18.634Z,3.90
2023-01-30T08:56:45.060Z,3.00
2023-01-30T08:59:11.353Z,5.43
2023-01-30T09:01:38.419Z,2.67
2023-01-30T09:04:04.904Z,3.25
2023-01-30T09:06:31.302Z,2.80
2023-01-30T09:08:58.965Z,2.97
2023-01-30T09:11:25.319Z,2.90
2023-01-30T09:13:51.660Z,2.95
2023-01-30T09:16:18.053Z,3.28
2023-01-30T09:18:44.761Z,3.28
2023-01-30T09:21:12.214Z,3.70
2023-01-30T09:23:38.622Z,2.88
2023-01-30T09:26:05.263Z,2.42
2023-01-30T09:28:31.737Z,2.72
2023-01-30T09:30:58.448Z,3.25
2023-01-30T09:33:24.808Z,3.83
2023-01-30T09:35:51.512Z,3.08
2023-01-30T09:38:18.098Z,4.18
2023-01-30T09:41:07.779Z,4.65
2023-01-30T09:43:53.765Z,17.05
2023-01-30T09:47:00.965Z,5.00
2023-01-30T09:49:40.746Z,6.45
2023-01-30T09:52:26.010Z,14.68
2023-01-30T09:54:54.937Z,3.55
2023-01-30T09:57:23.054Z,3.67
2023-01-30T10:00:09.742Z,2.08
2023-01-30T10:02:39.085Z,2.97
2023-01-30T10:05:05.788Z,6.10
2023-01-30T10:07:32.237Z,2.50
2023-01-30T10:10:10.749Z,7.53
2023-01-30T10:12:37.089Z,4.60
2023-01-30T10:15:15.634Z,7.18
2023-01-30T10:17:57.283Z,4.43
2023-01-30T10:20:32.625Z,2.78
2023-01-30T10:23:02.230Z,3.38
2023-01-30T10:25:31.346Z,2.92
2023-01-30T10:28:01.822Z,3.05
2023-01-30T10:30:28.195Z,3.45
2023-01-30T10:32:57.369Z,2.60
2023-01-30T10:35:27.050Z,3.67
2023-01-30T10:37:56.932Z,3.15
2023-01-30T10:40:32.349Z,2.88
2023-01-30T10:43:03.253Z,3.83
2023-01-30T10:45:36.577Z,2.17
2023-01-30T10:48:03.069Z,2.53
2023-01-30T10:50:36.912Z,2.35
2023-01-30T10:53:14.212Z,1.63
2023-01-30T10:56:06.917Z,2.25
2023-01-30T10:58:54.473Z,2.60
2023-01-30T11:01:43.841Z,2.65
2023-01-30T11:04:28.895Z,2.35
2023-01-30T11:06:55.714Z,3.63
2023-01-30T11:09:24.516Z,1.98
2023-01-30T11:11:52.281Z,2.80
2023-01-30T11:14:18.862Z,2.70
2023-01-30T11:16:49.970Z,2.58
2023-01-30T11:19:20.786Z,2.23
2023-01-30T11:21:52.194Z,3.00
2023-01-30T11:24:20.014Z,3.13
2023-01-30T11:26:48.362Z,2.75
2023-01-30T11:29:16.215Z,3.15
2023-01-30T11:31:42.804Z,2.17
2023-01-30T11:34:13.139Z,1.92
2023-01-30T11:36:39.646Z,2.67
2023-01-30T11:39:09.025Z,2.13
2023-01-30T11:41:35.407Z,2.75
2023-01-30T11:44:03.117Z,3.53
2023-01-30T11:46:33.505Z,2.33
2023-01-30T11:49:44.884Z,1.75
2023-01-30T11:51:48.764Z,3.15
2023-01-30T11:54:18.450Z,2.58
2023-01-30T11:56:51.149Z,3.45
2023-01-30T11:59:26.265Z,3.83
2023-01-30T12:01:53.158Z,2.90
2023-01-30T12:04:20.437Z,3.33
2023-01-30T12:06:46.765Z,3.35
2023-01-30T12:09:36.421Z,3.78
2023-01-30T12:12:03.427Z,2.40
2023-01-30T12:14:36.609Z,2.83
2023-01-30T12:17:23.453Z,2.53
2023-01-30T12:19:58.640Z,2.40
2023-01-30T12:22:51.017Z,2.38
2023-01-30T12:27:48.358Z,2.45
2023-01-30T12:30:17.987Z,4.70
2023-01-30T12:32:44.746Z,2.45
2023-01-30T12:35:15.408Z,3.85
2023-01-30T12:37:41.739Z,4.63
2023-01-30T12:40:27.040Z,4.18
2023-01-30T12:43:08.080Z,7.45
2023-01-30T12:45:37.218Z,5.50
2023-01-30T12:48:21.737Z,4.05
2023-01-30T12:51:03.048Z,5.20
2023-01-30T12:53:33.773Z,6.00
2023-01-30T12:56:20.888Z,3.05
2023-01-30T12:58:54.852Z,5.07
2023-01-30T13:01:36.420Z,3.78
2023-01-30T13:04:14.002Z,3.50
2023-01-30T13:06:47.587Z,3.85
2023-01-30T13:09:23.306Z,3.15
2023-01-30T13:11:54.275Z,8.57
2023-01-30T13:14:39.317Z,2.45
2023-01-30T13:17:26.203Z,2.40
2023-01-30T13:19:56.454Z,4.28
2023-01-30T13:22:45.798Z,3.15
2023-01-30T13:25:12.560Z,6.22
2023-01-30T13:27:40.289Z,3.33
2023-01-30T13:30:10.315Z,5.10
2023-01-30T13:32:45.146Z,5.13
2023-01-30T13:35:16.963Z,5.55
2023-01-30T13:37:45.924Z,4.25
2023-01-30T13:40:16.793Z,2.25
2023-01-30T13:42:46.460Z,2.83
2023-01-30T13:45:23.718Z,4.78
2023-01-30T13:48:03.689Z,5.15
2023-01-30T13:50:48.490Z,2.35
2023-01-30T13:53:14.804Z,6.82
2023-01-30T13:55:47.790Z,4.93
2023-01-30T13:58:30.399Z,5.85
2023-01-30T14:00:57.229Z,7.03
2023-01-30T14:03:31.658Z,4.45
2023-01-30T14:05:59.167Z,3.58
2023-01-30T14:08:27.343Z,6.72
2023-01-30T14:10:57.093Z,5.47
2023-01-30T14:13:24.423Z,7.43
2023-01-30T14:15:56.986Z,7.70
2023-01-30T14:18:25.080Z,3.05
2023-01-30T14:20:52.096Z,5.68
2023-01-30T14:23:28.758Z,3.50
2023-01-30T14:25:58.322Z,5.32
2023-01-30T14:28:25.135Z,6.65
2023-01-30T14:30:52.883Z,3.72
2023-01-30T14:33:19.263Z,8.63
2023-01-30T14:35:46.159Z,5.90
2023-01-30T14:38:13.866Z,13.02
2023-01-30T14:40:44.073Z,4.05
2023-01-30T14:43:14.932Z,5.78
2023-01-30T14:45:43.991Z,4.40
2023-01-30T14:48:38.794Z,3.53
2023-01-30T14:53:31.276Z,6.32
2023-01-30T14:56:02.493Z,5.70
2023-01-30T14:58:28.891Z,7.78
2023-01-30T15:00:59.560Z,4.50
2023-01-30T15:03:25.967Z,3.17
2023-01-30T15:05:52.311Z,4.50
2023-01-30T15:08:24.017Z,3.95
2023-01-30T15:10:50.377Z,4.18
2023-01-30T15:13:29.148Z,5.53
2023-01-30T15:15:55.639Z,7.47
2023-01-30T15:18:25.442Z,3.38
2023-01-30T15:20:51.897Z,5.07
2023-01-30T15:23:21.314Z,8.75
2023-01-30T15:26:05.023Z,7.85
2023-01-30T15:28:40.413Z,6.47
2023-01-30T15:31:18.228Z,6.82
2023-01-30T15:33:46.261Z,6.63
2023-01-30T15:36:25.408Z,5.20
2023-01-30T15:39:02.686Z,7.22
2023-01-30T15:41:30.554Z,5.93
2023-01-30T15:44:15.518Z,6.45
2023-01-30T15:46:44.681Z,3.78
2023-01-30T15:49:20.242Z,8.75
2023-01-30T15:51:46.835Z,9.95
2023-01-30T15:54:22.589Z,11.07
2023-01-30T15:56:49.930Z,3.30
2023-01-30T15:59:36.070Z,10.68
2023-01-30T16:02:04.153Z,6.45
2023-01-30T16:04:30.605Z,4.20
2023-01-30T16:06:56.964Z,7.18
2023-01-30T16:09:26.222Z,7.65
2023-01-30T16:11:52.602Z,6.35
2023-01-30T16:14:20.050Z,2.97
2023-01-30T16:16:48.774Z,6.40
2023-01-30T16:19:26.406Z,6.82
2023-01-30T16:21:53.112Z,10.20
2023-01-30T16:24:29.560Z,9.50
2023-01-30T16:27:00.739Z,10.73
2023-01-30T16:29:27.797Z,8.38
2023-01-30T16:31:55.526Z,8.63
2023-01-30T16:34:29.922Z,4.85
2023-01-30T16:36:56.950Z,8.55
2023-01-30T16:39:30.657Z,8.48
2023-01-30T16:41:57.563Z,5.03
2023-01-30T16:44:24.815Z,8.70
2023-01-30T16:47:02.752Z,14.38
2023-01-30T16:49:29.253Z,5.55
2023-01-30T16:52:12.621Z,7.63
2023-01-30T16:54:41.070Z,4.85
2023-01-30T16:57:07.713Z,5.95
2023-01-30T16:59:35.241Z,6.63
2023-01-30T17:02:03.753Z,4.50
2023-01-30T17:04:31.135Z,7.38
2023-01-30T17:07:01.626Z,7.88
2023-01-30T17:09:39.616Z,4.50
2023-01-30T17:12:24.975Z,6.30
2023-01-30T17:15:14.172Z,5.63
2023-01-30T17:17:41.313Z,8.18
2023-01-30T17:20:08.120Z,10.65
2023-01-30T17:22:34.979Z,6.43
2023-01-30T17:25:02.488Z,8.90
2023-01-30T17:27:29.632Z,2.13
2023-01-30T17:29:55.970Z,6.88
2023-01-30T17:32:22.336Z,6.32
2023-01-30T17:34:48.737Z,9.82
2023-01-30T17:37:20.158Z,7.63
2023-01-30T17:39:47.058Z,7.70
2023-01-30T17:42:13.853Z,7.80
2023-01-30T17:44:40.817Z,5.88
2023-01-30T17:47:09.145Z,4.55
2023-01-30T17:49:35.477Z,6.28
2023-01-30T17:52:01.968Z,7.35
2023-01-30T17:54:30.048Z,10.35
2023-01-30T17:56:59.517Z,8.35
2023-01-30T17:59:26.013Z,7.85
2023-01-30T18:01:52.751Z,8.32
2023-01-30T18:04:19.733Z,9.40
2023-01-30T18:06:59.219Z,9.02
2023-01-30T18:09:26.998Z,8.48
2023-01-30T18:11:53.361Z,10.90
2023-01-30T18:14:20.058Z,10.95
2023-01-30T18:16:47.081Z,6.85
2023-01-30T18:19:14.963Z,10.52
2023-01-30T18:21:44.967Z,7.68
2023-01-30T18:24:11.986Z,6.50
2023-01-30T18:26:38.482Z,5.22
2023-01-30T18:29:04.875Z,6.75
2023-01-30T18:31:31.484Z,5.28
2023-01-30T18:33:57.913Z,4.65
2023-01-30T18:36:24.272Z,4.25
2023-01-30T18:38:50.631Z,5.00
2023-01-30T18:41:26.107Z,4.75
2023-01-30T18:43:59.683Z,7.18
2023-01-30T18:46:26.500Z,5.18
2023-01-30T18:48:53.255Z,6.80
2023-01-30T18:51:21.252Z,9.32
2023-01-30T18:53:48.327Z,3.72
2023-01-30T18:56:15.895Z,10.45
2023-01-30T18:58:42.266Z,8.48
2023-01-30T19:01:14.176Z,6.18
2023-01-30T19:03:41.132Z,10.15
2023-01-30T19:06:10.603Z,5.75
2023-01-30T19:08:37.077Z,6.22
2023-01-30T19:11:26.359Z,1.77
2023-01-30T19:13:53.592Z,7.60
2023-01-30T19:16:20.702Z,11.60
2023-01-30T19:18:49.573Z,9.80
2023-01-30T19:21:16.469Z,9.40
2023-01-30T19:23:43.290Z,6.85
2023-01-30T19:26:10.060Z,6.30
2023-01-30T19:28:36.600Z,6.93
2023-01-30T19:31:09.658Z,7.60
2023-01-30T19:33:36.237Z,5.25
2023-01-30T19:36:12.021Z,6.40
2023-01-30T19:38:39.388Z,7.55
2023-01-30T19:41:10.183Z,7.80
2023-01-30T19:43:39.849Z,6.65
2023-01-30T19:46:06.635Z,4.82
2023-01-30T19:48:33.033Z,8.55
2023-01-30T19:51:02.730Z,9.35
2023-01-30T19:53:29.177Z,6.07
2023-01-30T19:55:55.508Z,7.97
2023-01-30T19:58:22.095Z,5.50
2023-01-30T20:00:50.216Z,5.35
2023-01-30T20:03:18.626Z,2.60
2023-01-30T20:05:45.245Z,3.90
2023-01-30T20:08:25.521Z,6.60
2023-01-30T20:11:00.766Z,7.10
2023-01-30T20:13:27.188Z,8.53
2023-01-30T20:15:53.795Z,6.53
2023-01-30T20:18:20.219Z,6.43
2023-01-30T20:20:46.559Z,9.95
2023-01-30T20:23:12.901Z,8.85
2023-01-30T20:25:39.246Z,5.68
2023-01-30T20:28:05.610Z,7.95
2023-01-30T20:30:31.948Z,5.85
2023-01-30T20:32:58.293Z,5.32
2023-01-30T20:35:24.720Z,9.88
2023-01-30T20:37:51.115Z,5.05
2023-01-30T20:40:18.872Z,5.35
2023-01-30T20:42:45.545Z,5.35
2023-01-30T20:45:11.839Z,5.05
2023-01-30T20:47:40.438Z,5.53
2023-01-30T20:50:06.947Z,4.78
2023-01-30T20:52:33.491Z,6.82
2023-01-30T20:54:59.845Z,5.32
2023-01-30T20:57:26.383Z,5.32
2023-01-30T20:59:52.860Z,5.20
2023-01-30T21:02:19.216Z,3.33
2023-01-30T21:04:45.730Z,9.20
2023-01-30T21:07:12.093Z,6.15
2023-01-30T21:09:38.438Z,2.45
2023-01-30T21:12:04.901Z,4.82
2023-01-30T21:14:31.247Z,3.63
2023-01-30T21:16:57.675Z,2.70
2023-01-30T21:19:24.107Z,4.32
2023-01-30T21:21:54.997Z,4.25
2023-01-30T21:24:23.777Z,4.25
2023-01-30T21:26:50.692Z,3.55
2023-01-30T21:29:22.455Z,5.85
2023-01-30T21:31:49.118Z,3.47
2023-01-30T21:34:15.577Z,6.07
2023-01-30T21:36:42.081Z,8.35
2023-01-30T21:39:31.506Z,7.28
2023-01-30T21:42:33.303Z,5.78
2023-01-30T21:45:01.084Z,6.68
2023-01-30T21:47:27.584Z,3.95
2023-01-30T21:49:54.209Z,7.20
2023-01-30T21:52:20.530Z,13.52
2023-01-30T21:54:46.844Z,9.80
2023-01-30T21:57:13.175Z,5.78
2023-01-30T21:59:39.978Z,8.27
2023-01-30T22:02:06.386Z,7.10
2023-01-30T22:04:34.687Z,3.33
2023-01-30T22:07:01.073Z,2.75
2023-01-30T22:09:27.479Z,3.47
2023-01-30T22:11:54.976Z,3.88
2023-01-30T22:14:21.415Z,2.33
2023-01-30T22:16:47.749Z,7.20
2023-01-30T22:19:14.377Z,6.72
2023-01-30T22:21:40.744Z,8.05
2023-01-30T22:24:08.411Z,6.85
2023-01-30T22:26:34.896Z,5.35
2023-01-30T22:29:02.367Z,13.05
2023-01-30T22:31:34.686Z,8.88
2023-01-30T22:34:01.616Z,9.20
2023-01-30T22:36:29.987Z,4.10
2023-01-30T22:38:56.378Z,3.42
2023-01-30T22:41:23.865Z,7.65
2023-01-30T22:43:51.729Z,3.55
2023-01-30T22:46:18.822Z,6.13
2023-01-30T22:48:45.524Z,2.90
2023-01-30T22:51:24.894Z,3.75
2023-01-30T22:53:55.154Z,2.78
2023-01-30T22:56:23.153Z,11.68
2023-01-30T22:58:49.840Z,4.15
2023-01-30T23:01:27.508Z,5.57
2023-01-30T23:03:55.422Z,1.75
2023-01-30T23:06:22.182Z,6.32
2023-01-30T23:08:49.241Z,1.30
2023-01-30T23:11:24.338Z,0.60
2023-01-30T23:13:51.765Z,2.75
2023-01-30T23:16:19.503Z,2.20
2023-01-30T23:18:55.312Z,2.33
2023-01-30T23:21:26.544Z,2.10
2023-01-30T23:23:53.985Z,2.47
2023-01-30T23:26:21.273Z,4.65
2023-01-30T23:28:47.737Z,0.82
2023-01-30T23:31:15.599Z,1.27
2023-01-30T23:33:42.164Z,1.15
2023-01-30T23:36:10.056Z,1.58
2023-01-30T23:38:36.598Z,0.70
2023-01-30T23:41:13.648Z,1.00
2023-01-30T23:43:40.739Z,0.70
2023-01-30T23:46:10.191Z,2.15
2023-01-30T23:48:36.574Z,3.20
2023-01-30T23:51:03.485Z,2.85
2023-01-30T23:53:29.857Z,1.40
2023-01-30T23:55:56.283Z,1.88
2023-01-30T23:58:22.729Z,6.40
